Terminal Aerodrome Forecast
Issued by NWS Sioux Falls, SD

Home | Current Version | Previous Version | Text Only | Print | Product List | Glossary On
Versions: 1 2 3 4 5 6 7 8 9 10 11 12 13 14
000
FTUS43 KFSD 112331
TAFFSD
TAF
KFSD 112331Z 1200/1224 34015G22KT P6SM SCT025
     FM120100 34014KT P6SM SKC
     FM120500 33009KT P6SM FEW250
     FM121100 29005KT P6SM BKN025
     FM121800 28008KT P6SM BKN070=

USA.gov is the U.S. government's official web portal to all federal, state and local government web resources and services.